sensor_id;sensor_type;location;lat;lon;timestamp;temperature;humidity
47600;DHT22;33323;52.124;6.018;2023-08-24T00:02:14;17.30;99.90
47600;DHT22;33323;52.124;6.018;2023-08-24T00:04:41;17.20;99.90
47600;DHT22;33323;52.124;6.018;2023-08-24T00:07:08;17.30;99.90
47600;DHT22;33323;52.124;6.018;2023-08-24T00:09:35;17.20;99.90
47600;DHT22;33323;52.124;6.018;2023-08-24T00:12:02;17.20;99.90
47600;DHT22;33323;52.124;6.018;2023-08-24T00:14:29;17.20;99.90
47600;DHT22;33323;52.124;6.018;2023-08-24T00:16:56;17.20;99.90
47600;DHT22;33323;52.124;6.018;2023-08-24T00:19:23;17.10;99.90
47600;DHT22;33323;52.124;6.018;2023-08-24T00:21:50;17.10;99.90
47600;DHT22;33323;52.124;6.018;2023-08-24T00:24:17;16.90;99.90
47600;DHT22;33323;52.124;6.018;2023-08-24T00:26:44;16.90;99.90
47600;DHT22;33323;52.124;6.018;2023-08-24T00:29:12;16.90;99.90
47600;DHT22;33323;52.124;6.018;2023-08-24T00:31:39;17.00;99.90
47600;DHT22;33323;52.124;6.018;2023-08-24T00:34:06;17.10;99.90
47600;DHT22;33323;52.124;6.018;2023-08-24T00:36:33;17.10;99.90
47600;DHT22;33323;52.124;6.018;2023-08-24T00:39:00;17.10;99.90
47600;DHT22;33323;52.124;6.018;2023-08-24T00:41:28;17.10;99.90
47600;DHT22;33323;52.124;6.018;2023-08-24T00:43:55;17.00;99.90
47600;DHT22;33323;52.124;6.018;2023-08-24T00:46:22;16.80;99.90
47600;DHT22;33323;52.124;6.018;2023-08-24T00:48:49;16.60;99.90
47600;DHT22;33323;52.124;6.018;2023-08-24T00:51:18;16.30;99.90
47600;DHT22;33323;52.124;6.018;2023-08-24T00:53:45;16.20;99.90
47600;DHT22;33323;52.124;6.018;2023-08-24T00:56:13;16.20;99.90
47600;DHT22;33323;52.124;6.018;2023-08-24T00:58:40;16.20;99.90
47600;DHT22;33323;52.124;6.018;2023-08-24T01:01:07;16.40;99.90
47600;DHT22;33323;52.124;6.018;2023-08-24T01:03:34;16.40;99.90
47600;DHT22;33323;52.124;6.018;2023-08-24T01:06:01;16.50;99.90
47600;DHT22;33323;52.124;6.018;2023-08-24T01:08:28;16.50;99.90
47600;DHT22;33323;52.124;6.018;2023-08-24T01:14:00;16.70;99.90
47600;DHT22;33323;52.124;6.018;2023-08-24T01:16:31;16.70;99.90
47600;DHT22;33323;52.124;6.018;2023-08-24T01:19:01;16.60;99.90
47600;DHT22;33323;52.124;6.018;2023-08-24T01:21:30;16.50;99.90
47600;DHT22;33323;52.124;6.018;2023-08-24T01:24:04;16.50;99.90
47600;DHT22;33323;52.124;6.018;2023-08-24T01:26:37;16.50;99.90
47600;DHT22;33323;52.124;6.018;2023-08-24T01:29:06;16.60;99.90
47600;DHT22;33323;52.124;6.018;2023-08-24T01:31:34;16.70;99.90
47600;DHT22;33323;52.124;6.018;2023-08-24T01:34:01;16.70;99.90
47600;DHT22;33323;52.124;6.018;2023-08-24T01:36:28;16.80;99.90
47600;DHT22;33323;52.124;6.018;2023-08-24T01:42:02;16.80;99.90
47600;DHT22;33323;52.124;6.018;2023-08-24T01:44:35;16.70;99.90
47600;DHT22;33323;52.124;6.018;2023-08-24T01:47:05;16.40;99.90
47600;DHT22;33323;52.124;6.018;2023-08-24T01:49:34;16.30;99.90
47600;DHT22;33323;52.124;6.018;2023-08-24T01:52:02;16.20;99.90
47600;DHT22;33323;52.124;6.018;2023-08-24T01:54:31;16.20;99.90
47600;DHT22;33323;52.124;6.018;2023-08-24T01:56:58;16.30;99.90
47600;DHT22;33323;52.124;6.018;2023-08-24T01:59:26;16.30;99.90
47600;DHT22;33323;52.124;6.018;2023-08-24T02:01:54;16.30;99.90
47600;DHT22;33323;52.124;6.018;2023-08-24T02:04:21;16.50;99.90
47600;DHT22;33323;52.124;6.018;2023-08-24T02:06:48;16.60;99.90
47600;DHT22;33323;52.124;6.018;2023-08-24T02:09:15;16.60;99.90
47600;DHT22;33323;52.124;6.018;2023-08-24T02:11:42;16.60;99.90
47600;DHT22;33323;52.124;6.018;2023-08-24T02:14:09;16.60;99.90
47600;DHT22;33323;52.124;6.018;2023-08-24T02:16:37;16.60;99.90
47600;DHT22;33323;52.124;6.018;2023-08-24T02:19:05;16.60;99.90
47600;DHT22;33323;52.124;6.018;2023-08-24T02:21:35;16.50;99.90
47600;DHT22;33323;52.124;6.018;2023-08-24T02:24:04;16.40;99.90
47600;DHT22;33323;52.124;6.018;2023-08-24T02:26:32;16.50;99.90
47600;DHT22;33323;52.124;6.018;2023-08-24T02:28:59;16.60;99.90
47600;DHT22;33323;52.124;6.018;2023-08-24T02:31:26;16.60;99.90
47600;DHT22;33323;52.124;6.018;2023-08-24T02:33:54;16.70;99.90
47600;DHT22;33323;52.124;6.018;2023-08-24T02:36:21;16.80;99.90
47600;DHT22;33323;52.124;6.018;2023-08-24T02:38:49;16.80;99.90
47600;DHT22;33323;52.124;6.018;2023-08-24T02:41:17;16.80;99.90
47600;DHT22;33323;52.124;6.018;2023-08-24T02:43:44;16.90;99.90
47600;DHT22;33323;52.124;6.018;2023-08-24T02:46:13;17.00;99.90
47600;DHT22;33323;52.124;6.018;2023-08-24T02:48:40;16.80;99.90
47600;DHT22;33323;52.124;6.018;2023-08-24T02:51:08;16.70;99.90
47600;DHT22;33323;52.124;6.018;2023-08-24T02:53:36;16.60;99.90
47600;DHT22;33323;52.124;6.018;2023-08-24T02:56:03;16.50;99.90
47600;DHT22;33323;52.124;6.018;2023-08-24T02:58:30;16.50;99.90
47600;DHT22;33323;52.124;6.018;2023-08-24T03:00:58;16.50;99.90
47600;DHT22;33323;52.124;6.018;2023-08-24T03:03:25;16.50;99.90
47600;DHT22;33323;52.124;6.018;2023-08-24T03:06:00;16.60;99.90
47600;DHT22;33323;52.124;6.018;2023-08-24T03:08:30;16.60;99.90
47600;DHT22;33323;52.124;6.018;2023-08-24T03:10:59;16.80;99.90
47600;DHT22;33323;52.124;6.018;2023-08-24T03:13:27;16.90;99.90
47600;DHT22;33323;52.124;6.018;2023-08-24T03:15:55;16.90;99.90
47600;DHT22;33323;52.124;6.018;2023-08-24T03:18:26;16.90;99.90
47600;DHT22;33323;52.124;6.018;2023-08-24T03:20:54;16.90;99.90
47600;DHT22;33323;52.124;6.018;2023-08-24T03:23:21;16.70;99.90
47600;DHT22;33323;52.124;6.018;2023-08-24T03:25:48;16.70;99.90
47600;DHT22;33323;52.124;6.018;2023-08-24T03:28:15;16.70;99.90
47600;DHT22;33323;52.124;6.018;2023-08-24T03:30:47;16.80;99.90
47600;DHT22;33323;52.124;6.018;2023-08-24T03:33:16;16.90;99.90
47600;DHT22;33323;52.124;6.018;2023-08-24T03:35:43;16.90;99.90
47600;DHT22;33323;52.124;6.018;2023-08-24T03:38:10;16.90;99.90
47600;DHT22;33323;52.124;6.018;2023-08-24T03:40:37;16.90;99.90
47600;DHT22;33323;52.124;6.018;2023-08-24T03:43:05;16.80;99.90
47600;DHT22;33323;52.124;6.018;2023-08-24T03:45:32;16.70;99.90
47600;DHT22;33323;52.124;6.018;2023-08-24T03:47:59;16.40;99.90
47600;DHT22;33323;52.124;6.018;2023-08-24T03:50:26;16.20;99.90
47600;DHT22;33323;52.124;6.018;2023-08-24T03:52:54;16.00;99.90
47600;DHT22;33323;52.124;6.018;2023-08-24T03:55:22;16.00;99.90
47600;DHT22;33323;52.124;6.018;2023-08-24T03:57:49;16.00;99.90
47600;DHT22;33323;52.124;6.018;2023-08-24T04:00:17;16.00;99.90
47600;DHT22;33323;52.124;6.018;2023-08-24T04:02:45;16.00;99.90
47600;DHT22;33323;52.124;6.018;2023-08-24T04:05:20;16.10;99.90
47600;DHT22;33323;52.124;6.018;2023-08-24T04:07:47;16.10;99.90
47600;DHT22;33323;52.124;6.018;2023-08-24T04:10:15;16.20;99.90
47600;DHT22;33323;52.124;6.018;2023-08-24T04:12:42;16.30;99.90
47600;DHT22;33323;52.124;6.018;2023-08-24T04:15:09;16.30;99.90
47600;DHT22;33323;52.124;6.018;2023-08-24T04:17:38;16.30;99.90
47600;DHT22;33323;52.124;6.018;2023-08-24T04:20:08;16.10;99.90
47600;DHT22;33323;52.124;6.018;2023-08-24T04:22:36;15.80;99.90
47600;DHT22;33323;52.124;6.018;2023-08-24T04:25:04;15.70;99.90
47600;DHT22;33323;52.124;6.018;2023-08-24T04:27:31;15.50;99.90
47600;DHT22;33323;52.124;6.018;2023-08-24T04:29:59;15.40;99.90
47600;DHT22;33323;52.124;6.018;2023-08-24T04:32:27;15.40;99.90
47600;DHT22;33323;52.124;6.018;2023-08-24T04:34:55;15.50;99.90
47600;DHT22;33323;52.124;6.018;2023-08-24T04:37:22;15.60;99.90
47600;DHT22;33323;52.124;6.018;2023-08-24T04:39:49;15.50;99.90
47600;DHT22;33323;52.124;6.018;2023-08-24T04:42:16;15.40;99.90
47600;DHT22;33323;52.124;6.018;2023-08-24T04:44:43;15.30;99.90
47600;DHT22;33323;52.124;6.018;2023-08-24T04:47:11;15.30;99.90
47600;DHT22;33323;52.124;6.018;2023-08-24T04:49:38;15.30;99.90
47600;DHT22;33323;52.124;6.018;2023-08-24T04:52:06;15.40;99.90
47600;DHT22;33323;52.124;6.018;2023-08-24T04:54:33;15.40;99.90
47600;DHT22;33323;52.124;6.018;2023-08-24T04:57:01;15.50;99.90
47600;DHT22;33323;52.124;6.018;2023-08-24T04:59:29;15.50;99.90
47600;DHT22;33323;52.124;6.018;2023-08-24T05:01:56;15.60;99.90
47600;DHT22;33323;52.124;6.018;2023-08-24T05:04:24;15.70;99.90
47600;DHT22;33323;52.124;6.018;2023-08-24T05:06:51;15.80;99.90
47600;DHT22;33323;52.124;6.018;2023-08-24T05:09:18;15.80;99.90
47600;DHT22;33323;52.124;6.018;2023-08-24T05:11:46;15.80;99.90
47600;DHT22;33323;52.124;6.018;2023-08-24T05:14:13;15.90;99.90
47600;DHT22;33323;52.124;6.018;2023-08-24T05:16:41;16.00;99.90
47600;DHT22;33323;52.124;6.018;2023-08-24T05:19:08;16.30;99.90
47600;DHT22;33323;52.124;6.018;2023-08-24T05:21:35;16.50;99.90
47600;DHT22;33323;52.124;6.018;2023-08-24T05:24:02;16.80;99.90
47600;DHT22;33323;52.124;6.018;2023-08-24T05:26:31;17.00;99.90
47600;DHT22;33323;52.124;6.018;2023-08-24T05:28:58;17.20;99.90
47600;DHT22;33323;52.124;6.018;2023-08-24T05:31:25;17.60;99.90
47600;DHT22;33323;52.124;6.018;2023-08-24T05:33:52;18.00;99.90
47600;DHT22;33323;52.124;6.018;2023-08-24T05:36:19;18.40;99.90
47600;DHT22;33323;52.124;6.018;2023-08-24T05:38:47;18.70;99.90
47600;DHT22;33323;52.124;6.018;2023-08-24T05:41:31;19.00;99.90
47600;DHT22;33323;52.124;6.018;2023-08-24T05:43:58;19.40;99.90
47600;DHT22;33323;52.124;6.018;2023-08-24T05:46:26;19.70;99.90
47600;DHT22;33323;52.124;6.018;2023-08-24T05:48:53;20.00;99.90
47600;DHT22;33323;52.124;6.018;2023-08-24T05:51:20;20.20;99.90
47600;DHT22;33323;52.124;6.018;2023-08-24T05:53:47;20.20;99.90
47600;DHT22;33323;52.124;6.018;2023-08-24T05:56:14;20.30;99.90
47600;DHT22;33323;52.124;6.018;2023-08-24T05:58:41;20.50;99.90
47600;DHT22;33323;52.124;6.018;2023-08-24T06:01:08;20.60;99.90
47600;DHT22;33323;52.124;6.018;2023-08-24T06:03:35;20.70;99.90
47600;DHT22;33323;52.124;6.018;2023-08-24T06:06:03;20.80;99.90
47600;DHT22;33323;52.124;6.018;2023-08-24T06:08:31;21.00;99.90
47600;DHT22;33323;52.124;6.018;2023-08-24T06:10:58;21.20;99.90
47600;DHT22;33323;52.124;6.018;2023-08-24T06:13:26;21.50;99.90
47600;DHT22;33323;52.124;6.018;2023-08-24T06:15:53;21.70;99.90
47600;DHT22;33323;52.124;6.018;2023-08-24T06:18:23;21.80;99.90
47600;DHT22;33323;52.124;6.018;2023-08-24T06:20:50;22.00;99.90
47600;DHT22;33323;52.124;6.018;2023-08-24T06:23:18;22.20;99.90
47600;DHT22;33323;52.124;6.018;2023-08-24T06:25:45;22.20;99.90
47600;DHT22;33323;52.124;6.018;2023-08-24T06:28:13;21.90;99.90
47600;DHT22;33323;52.124;6.018;2023-08-24T06:30:41;21.80;99.90
47600;DHT22;33323;52.124;6.018;2023-08-24T06:33:10;21.50;99.90
47600;DHT22;33323;52.124;6.018;2023-08-24T06:35:37;21.30;99.90
47600;DHT22;33323;52.124;6.018;2023-08-24T06:38:05;21.20;99.90
47600;DHT22;33323;52.124;6.018;2023-08-24T06:40:32;21.50;99.90
47600;DHT22;33323;52.124;6.018;2023-08-24T06:42:59;21.80;99.90
47600;DHT22;33323;52.124;6.018;2023-08-24T06:45:26;21.90;99.90
47600;DHT22;33323;52.124;6.018;2023-08-24T06:47:53;21.90;99.90
47600;DHT22;33323;52.124;6.018;2023-08-24T06:50:21;21.90;99.90
47600;DHT22;33323;52.124;6.018;2023-08-24T06:52:48;21.90;99.90
47600;DHT22;33323;52.124;6.018;2023-08-24T06:55:16;22.10;99.90
47600;DHT22;33323;52.124;6.018;2023-08-24T06:57:48;22.30;99.90
47600;DHT22;33323;52.124;6.018;2023-08-24T07:00:17;21.90;99.90
47600;DHT22;33323;52.124;6.018;2023-08-24T07:02:49;21.90;99.90
47600;DHT22;33323;52.124;6.018;2023-08-24T07:05:17;21.70;99.90
47600;DHT22;33323;52.124;6.018;2023-08-24T07:07:49;21.70;99.90
47600;DHT22;33323;52.124;6.018;2023-08-24T07:10:17;21.70;99.90
47600;DHT22;33323;52.124;6.018;2023-08-24T07:12:44;21.70;99.90
47600;DHT22;33323;52.124;6.018;2023-08-24T07:15:12;21.60;99.90
47600;DHT22;33323;52.124;6.018;2023-08-24T07:17:40;21.60;99.90
47600;DHT22;33323;52.124;6.018;2023-08-24T07:20:08;21.20;99.90
47600;DHT22;33323;52.124;6.018;2023-08-24T07:22:36;21.10;99.90
47600;DHT22;33323;52.124;6.018;2023-08-24T07:25:04;21.00;99.90
47600;DHT22;33323;52.124;6.018;2023-08-24T07:27:33;21.20;99.90
47600;DHT22;33323;52.124;6.018;2023-08-24T07:30:01;21.00;99.90
47600;DHT22;33323;52.124;6.018;2023-08-24T07:32:52;21.40;99.90
47600;DHT22;33323;52.124;6.018;2023-08-24T07:35:22;21.40;99.90
47600;DHT22;33323;52.124;6.018;2023-08-24T07:37:51;21.20;99.90
47600;DHT22;33323;52.124;6.018;2023-08-24T07:40:19;21.10;99.90
47600;DHT22;33323;52.124;6.018;2023-08-24T07:42:48;21.20;99.90
47600;DHT22;33323;52.124;6.018;2023-08-24T07:45:17;21.20;99.90
47600;DHT22;33323;52.124;6.018;2023-08-24T07:47:45;21.10;99.90
47600;DHT22;33323;52.124;6.018;2023-08-24T07:50:12;21.30;99.90
47600;DHT22;33323;52.124;6.018;2023-08-24T07:52:40;21.30;99.90
47600;DHT22;33323;52.124;6.018;2023-08-24T07:55:08;21.60;99.90
47600;DHT22;33323;52.124;6.018;2023-08-24T07:57:37;22.20;99.90
47600;DHT22;33323;52.124;6.018;2023-08-24T08:00:05;22.50;99.90
47600;DHT22;33323;52.124;6.018;2023-08-24T08:02:38;22.50;99.90
47600;DHT22;33323;52.124;6.018;2023-08-24T08:05:05;22.70;99.90
47600;DHT22;33323;52.124;6.018;2023-08-24T08:07:37;22.90;99.90
47600;DHT22;33323;52.124;6.018;2023-08-24T08:10:05;23.00;99.90
47600;DHT22;33323;52.124;6.018;2023-08-24T08:12:35;23.10;99.90
47600;DHT22;33323;52.124;6.018;2023-08-24T08:15:03;23.40;99.90
47600;DHT22;33323;52.124;6.018;2023-08-24T08:17:32;23.50;99.90
47600;DHT22;33323;52.124;6.018;2023-08-24T08:20:01;23.60;99.90
47600;DHT22;33323;52.124;6.018;2023-08-24T08:22:29;24.00;99.90
47600;DHT22;33323;52.124;6.018;2023-08-24T08:25:02;23.90;99.90
47600;DHT22;33323;52.124;6.018;2023-08-24T08:27:30;23.70;99.90
47600;DHT22;33323;52.124;6.018;2023-08-24T08:29:58;24.10;99.90
47600;DHT22;33323;52.124;6.018;2023-08-24T08:32:26;24.00;99.90
47600;DHT22;33323;52.124;6.018;2023-08-24T08:34:54;24.10;99.90
47600;DHT22;33323;52.124;6.018;2023-08-24T08:37:24;24.10;99.90
47600;DHT22;33323;52.124;6.018;2023-08-24T08:39:51;23.90;99.90
47600;DHT22;33323;52.124;6.018;2023-08-24T08:42:19;23.90;99.90
47600;DHT22;33323;52.124;6.018;2023-08-24T08:44:48;24.10;99.90
47600;DHT22;33323;52.124;6.018;2023-08-24T08:47:20;24.10;99.90
47600;DHT22;33323;52.124;6.018;2023-08-24T08:49:50;24.30;99.90
47600;DHT22;33323;52.124;6.018;2023-08-24T08:52:20;24.60;99.90
47600;DHT22;33323;52.124;6.018;2023-08-24T08:54:48;24.80;99.90
47600;DHT22;33323;52.124;6.018;2023-08-24T08:57:17;25.00;99.90
47600;DHT22;33323;52.124;6.018;2023-08-24T08:59:46;24.90;99.90
47600;DHT22;33323;52.124;6.018;2023-08-24T09:02:19;24.70;99.90
47600;DHT22;33323;52.124;6.018;2023-08-24T09:04:48;24.80;99.90
47600;DHT22;33323;52.124;6.018;2023-08-24T09:07:18;24.80;99.90
47600;DHT22;33323;52.124;6.018;2023-08-24T09:09:48;24.90;99.90
47600;DHT22;33323;52.124;6.018;2023-08-24T09:12:16;25.00;99.90
47600;DHT22;33323;52.124;6.018;2023-08-24T09:14:44;25.30;99.90
47600;DHT22;33323;52.124;6.018;2023-08-24T09:17:22;25.60;99.90
47600;DHT22;33323;52.124;6.018;2023-08-24T09:19:50;25.80;99.90
47600;DHT22;33323;52.124;6.018;2023-08-24T09:22:20;26.30;99.90
47600;DHT22;33323;52.124;6.018;2023-08-24T09:24:49;26.60;99.90
47600;DHT22;33323;52.124;6.018;2023-08-24T09:27:22;26.30;99.90
47600;DHT22;33323;52.124;6.018;2023-08-24T09:29:50;26.30;99.90
47600;DHT22;33323;52.124;6.018;2023-08-24T09:32:24;26.20;99.90
47600;DHT22;33323;52.124;6.018;2023-08-24T09:34:55;26.20;99.90
47600;DHT22;33323;52.124;6.018;2023-08-24T09:37:22;26.20;99.90
47600;DHT22;33323;52.124;6.018;2023-08-24T09:40:04;26.40;99.90
47600;DHT22;33323;52.124;6.018;2023-08-24T09:42:40;26.40;99.90
47600;DHT22;33323;52.124;6.018;2023-08-24T09:45:13;26.40;99.90
47600;DHT22;33323;52.124;6.018;2023-08-24T09:47:51;26.50;99.90
47600;DHT22;33323;52.124;6.018;2023-08-24T09:50:19;26.90;99.90
47600;DHT22;33323;52.124;6.018;2023-08-24T09:52:49;26.90;99.90
47600;DHT22;33323;52.124;6.018;2023-08-24T09:55:20;26.70;99.90
47600;DHT22;33323;52.124;6.018;2023-08-24T09:57:53;26.50;99.90
47600;DHT22;33323;52.124;6.018;2023-08-24T10:00:22;26.60;99.90
47600;DHT22;33323;52.124;6.018;2023-08-24T10:02:53;26.60;99.90
47600;DHT22;33323;52.124;6.018;2023-08-24T10:05:24;26.70;99.90
47600;DHT22;33323;52.124;6.018;2023-08-24T10:07:56;26.70;99.90
47600;DHT22;33323;52.124;6.018;2023-08-24T10:10:25;26.70;99.90
47600;DHT22;33323;52.124;6.018;2023-08-24T10:13:03;26.50;99.90
47600;DHT22;33323;52.124;6.018;2023-08-24T10:15:36;26.60;99.90
47600;DHT22;33323;52.124;6.018;2023-08-24T10:18:05;26.40;99.90
47600;DHT22;33323;52.124;6.018;2023-08-24T10:20:34;26.30;99.90
47600;DHT22;33323;52.124;6.018;2023-08-24T10:23:02;26.30;99.90
47600;DHT22;33323;52.124;6.018;2023-08-24T10:25:32;26.30;99.90
47600;DHT22;33323;52.124;6.018;2023-08-24T10:28:00;26.30;99.90
47600;DHT22;33323;52.124;6.018;2023-08-24T10:30:29;26.50;99.90
47600;DHT22;33323;52.124;6.018;2023-08-24T10:32:58;26.80;99.90
47600;DHT22;33323;52.124;6.018;2023-08-24T10:35:26;27.00;99.90
47600;DHT22;33323;52.124;6.018;2023-08-24T10:37:58;27.30;99.90
47600;DHT22;33323;52.124;6.018;2023-08-24T10:40:37;27.10;99.90
47600;DHT22;33323;52.124;6.018;2023-08-24T10:43:11;27.10;99.90
47600;DHT22;33323;52.124;6.018;2023-08-24T10:46:02;27.50;99.90
47600;DHT22;33323;52.124;6.018;2023-08-24T10:53:44;27.60;99.90
47600;DHT22;33323;52.124;6.018;2023-08-24T10:56:14;27.20;99.90
47600;DHT22;33323;52.124;6.018;2023-08-24T10:58:47;27.00;99.90
47600;DHT22;33323;52.124;6.018;2023-08-24T11:01:17;27.00;99.90
47600;DHT22;33323;52.124;6.018;2023-08-24T11:03:49;27.00;99.90
47600;DHT22;33323;52.124;6.018;2023-08-24T11:06:22;27.10;99.90
47600;DHT22;33323;52.124;6.018;2023-08-24T11:09:06;27.10;99.90
47600;DHT22;33323;52.124;6.018;2023-08-24T11:11:41;27.00;99.90
47600;DHT22;33323;52.124;6.018;2023-08-24T11:14:19;26.80;99.90
47600;DHT22;33323;52.124;6.018;2023-08-24T11:16:53;26.70;99.90
47600;DHT22;33323;52.124;6.018;2023-08-24T11:19:25;26.70;99.90
47600;DHT22;33323;52.124;6.018;2023-08-24T11:21:58;26.50;99.90
47600;DHT22;33323;52.124;6.018;2023-08-24T11:24:26;26.50;99.90
47600;DHT22;33323;52.124;6.018;2023-08-24T11:26:57;26.40;99.90
47600;DHT22;33323;52.124;6.018;2023-08-24T11:29:27;26.10;99.90
47600;DHT22;33323;52.124;6.018;2023-08-24T11:31:57;26.00;99.90
47600;DHT22;33323;52.124;6.018;2023-08-24T11:34:25;25.90;99.90
47600;DHT22;33323;52.124;6.018;2023-08-24T11:36:53;26.00;99.90
47600;DHT22;33323;52.124;6.018;2023-08-24T11:39:22;26.10;99.90
47600;DHT22;33323;52.124;6.018;2023-08-24T11:41:58;26.10;99.90
47600;DHT22;33323;52.124;6.018;2023-08-24T11:44:27;26.00;99.90
47600;DHT22;33323;52.124;6.018;2023-08-24T11:46:57;25.90;99.90
47600;DHT22;33323;52.124;6.018;2023-08-24T11:49:26;25.80;99.90
47600;DHT22;33323;52.124;6.018;2023-08-24T11:51:54;25.90;99.90
47600;DHT22;33323;52.124;6.018;2023-08-24T11:54:22;26.20;99.90
47600;DHT22;33323;52.124;6.018;2023-08-24T11:56:50;26.20;99.90
47600;DHT22;33323;52.124;6.018;2023-08-24T11:59:19;26.30;99.90
47600;DHT22;33323;52.124;6.018;2023-08-24T12:01:47;26.20;99.90
47600;DHT22;33323;52.124;6.018;2023-08-24T12:04:15;26.20;99.90
47600;DHT22;33323;52.124;6.018;2023-08-24T12:06:42;26.20;99.90
47600;DHT22;33323;52.124;6.018;2023-08-24T12:09:10;26.20;99.90
47600;DHT22;33323;52.124;6.018;2023-08-24T12:11:38;26.10;99.90
47600;DHT22;33323;52.124;6.018;2023-08-24T12:14:07;26.20;99.90
47600;DHT22;33323;52.124;6.018;2023-08-24T12:16:37;26.20;99.90
47600;DHT22;33323;52.124;6.018;2023-08-24T12:19:07;26.20;99.90
47600;DHT22;33323;52.124;6.018;2023-08-24T12:21:35;26.30;99.90
47600;DHT22;33323;52.124;6.018;2023-08-24T12:24:04;26.20;99.90
47600;DHT22;33323;52.124;6.018;2023-08-24T12:26:33;26.40;99.90
47600;DHT22;33323;52.124;6.018;2023-08-24T12:29:04;26.40;99.90
47600;DHT22;33323;52.124;6.018;2023-08-24T12:31:34;26.50;99.90
47600;DHT22;33323;52.124;6.018;2023-08-24T12:34:04;26.50;99.90
47600;DHT22;33323;52.124;6.018;2023-08-24T12:36:35;26.50;99.90
47600;DHT22;33323;52.124;6.018;2023-08-24T12:39:05;26.50;99.90
47600;DHT22;33323;52.124;6.018;2023-08-24T12:41:35;26.60;99.90
47600;DHT22;33323;52.124;6.018;2023-08-24T12:44:03;26.90;99.90
47600;DHT22;33323;52.124;6.018;2023-08-24T12:46:38;26.90;99.90
47600;DHT22;33323;52.124;6.018;2023-08-24T12:49:06;26.90;99.90
47600;DHT22;33323;52.124;6.018;2023-08-24T12:51:34;27.00;99.90
47600;DHT22;33323;52.124;6.018;2023-08-24T12:54:02;27.00;99.90
47600;DHT22;33323;52.124;6.018;2023-08-24T12:56:30;27.00;99.90
47600;DHT22;33323;52.124;6.018;2023-08-24T12:58:57;27.00;99.90
47600;DHT22;33323;52.124;6.018;2023-08-24T13:01:25;27.00;99.90
47600;DHT22;33323;52.124;6.018;2023-08-24T13:03:53;27.10;99.90
47600;DHT22;33323;52.124;6.018;2023-08-24T13:06:21;27.10;99.90
47600;DHT22;33323;52.124;6.018;2023-08-24T13:08:52;27.00;99.90
47600;DHT22;33323;52.124;6.018;2023-08-24T13:11:21;26.80;99.90
47600;DHT22;33323;52.124;6.018;2023-08-24T13:13:49;26.70;99.90
47600;DHT22;33323;52.124;6.018;2023-08-24T13:16:17;26.60;99.90
47600;DHT22;33323;52.124;6.018;2023-08-24T13:18:45;26.60;99.90
47600;DHT22;33323;52.124;6.018;2023-08-24T13:21:14;26.50;99.90
47600;DHT22;33323;52.124;6.018;2023-08-24T13:23:45;26.30;99.90
47600;DHT22;33323;52.124;6.018;2023-08-24T13:26:18;26.20;99.90
47600;DHT22;33323;52.124;6.018;2023-08-24T13:28:50;26.10;99.90
47600;DHT22;33323;52.124;6.018;2023-08-24T13:31:18;26.10;99.90
47600;DHT22;33323;52.124;6.018;2023-08-24T13:33:46;26.00;99.90
47600;DHT22;33323;52.124;6.018;2023-08-24T13:36:14;26.20;99.90
47600;DHT22;33323;52.124;6.018;2023-08-24T13:38:43;26.40;99.90
47600;DHT22;33323;52.124;6.018;2023-08-24T13:41:11;26.50;99.90
47600;DHT22;33323;52.124;6.018;2023-08-24T13:43:39;26.70;99.90
47600;DHT22;33323;52.124;6.018;2023-08-24T13:46:09;26.90;99.90
47600;DHT22;33323;52.124;6.018;2023-08-24T13:48:37;26.90;99.90
47600;DHT22;33323;52.124;6.018;2023-08-24T13:51:04;27.00;99.90
47600;DHT22;33323;52.124;6.018;2023-08-24T13:53:32;27.20;99.90
47600;DHT22;33323;52.124;6.018;2023-08-24T13:56:00;27.30;99.90
47600;DHT22;33323;52.124;6.018;2023-08-24T13:58:27;27.30;99.90
47600;DHT22;33323;52.124;6.018;2023-08-24T14:00:56;27.40;99.90
47600;DHT22;33323;52.124;6.018;2023-08-24T14:03:25;27.30;99.90
47600;DHT22;33323;52.124;6.018;2023-08-24T14:05:56;27.30;99.90
47600;DHT22;33323;52.124;6.018;2023-08-24T14:08:25;27.30;99.90
47600;DHT22;33323;52.124;6.018;2023-08-24T14:10:52;27.40;99.90
47600;DHT22;33323;52.124;6.018;2023-08-24T14:13:20;27.20;99.90
47600;DHT22;33323;52.124;6.018;2023-08-24T14:15:48;27.10;99.90
47600;DHT22;33323;52.124;6.018;2023-08-24T14:18:19;27.10;99.90
47600;DHT22;33323;52.124;6.018;2023-08-24T14:20:48;27.10;99.90
47600;DHT22;33323;52.124;6.018;2023-08-24T14:23:15;26.90;99.90
47600;DHT22;33323;52.124;6.018;2023-08-24T14:25:43;26.70;99.90
47600;DHT22;33323;52.124;6.018;2023-08-24T14:28:10;26.60;99.90
47600;DHT22;33323;52.124;6.018;2023-08-24T14:30:39;26.50;99.90
47600;DHT22;33323;52.124;6.018;2023-08-24T14:33:06;26.50;99.90
47600;DHT22;33323;52.124;6.018;2023-08-24T14:35:34;26.50;99.90
47600;DHT22;33323;52.124;6.018;2023-08-24T14:38:02;26.50;99.90
47600;DHT22;33323;52.124;6.018;2023-08-24T14:40:30;26.40;99.90
47600;DHT22;33323;52.124;6.018;2023-08-24T14:42:57;26.30;99.90
47600;DHT22;33323;52.124;6.018;2023-08-24T14:45:25;26.30;99.90
47600;DHT22;33323;52.124;6.018;2023-08-24T14:47:52;26.20;99.90
47600;DHT22;33323;52.124;6.018;2023-08-24T14:50:20;26.00;99.90
47600;DHT22;33323;52.124;6.018;2023-08-24T14:52:48;25.90;99.90
47600;DHT22;33323;52.124;6.018;2023-08-24T14:55:15;25.90;99.90
47600;DHT22;33323;52.124;6.018;2023-08-24T14:57:45;25.80;99.90
47600;DHT22;33323;52.124;6.018;2023-08-24T15:00:13;25.80;99.90
47600;DHT22;33323;52.124;6.018;2023-08-24T15:02:41;25.80;99.90
47600;DHT22;33323;52.124;6.018;2023-08-24T15:05:10;25.80;99.90
47600;DHT22;33323;52.124;6.018;2023-08-24T15:07:38;25.80;99.90
47600;DHT22;33323;52.124;6.018;2023-08-24T15:10:06;25.70;99.90
47600;DHT22;33323;52.124;6.018;2023-08-24T15:12:34;25.70;99.90
47600;DHT22;33323;52.124;6.018;2023-08-24T15:15:02;25.60;99.90
47600;DHT22;33323;52.124;6.018;2023-08-24T15:17:31;25.50;99.90
47600;DHT22;33323;52.124;6.018;2023-08-24T15:19:59;25.50;99.90
47600;DHT22;33323;52.124;6.018;2023-08-24T15:22:26;25.50;99.90
47600;DHT22;33323;52.124;6.018;2023-08-24T15:24:56;25.40;99.90
47600;DHT22;33323;52.124;6.018;2023-08-24T15:27:28;25.30;99.90
47600;DHT22;33323;52.124;6.018;2023-08-24T15:29:56;25.30;99.90
47600;DHT22;33323;52.124;6.018;2023-08-24T15:32:24;25.30;99.90
47600;DHT22;33323;52.124;6.018;2023-08-24T15:34:51;25.30;99.90
47600;DHT22;33323;52.124;6.018;2023-08-24T15:37:21;25.40;99.90
47600;DHT22;33323;52.124;6.018;2023-08-24T15:39:48;25.40;99.90
47600;DHT22;33323;52.124;6.018;2023-08-24T15:42:16;25.50;99.90
47600;DHT22;33323;52.124;6.018;2023-08-24T15:44:45;25.60;99.90
47600;DHT22;33323;52.124;6.018;2023-08-24T15:47:13;25.60;99.90
47600;DHT22;33323;52.124;6.018;2023-08-24T15:49:40;25.50;99.90
47600;DHT22;33323;52.124;6.018;2023-08-24T15:52:08;25.60;99.90